sensor_id;sensor_type;location;lat;lon;timestamp;P1;durP1;ratioP1;P2;durP2;ratioP2
74753;SDS011;63271;53.340;-6.260;2023-08-17T06:03:29;9.40;;;2.20;;
74753;SDS011;63271;53.340;-6.260;2023-08-17T06:05:54;8.50;;;2.08;;
74753;SDS011;63271;53.340;-6.260;2023-08-17T06:08:19;6.68;;;2.22;;
74753;SDS011;63271;53.340;-6.260;2023-08-17T06:10:47;15.35;;;4.90;;
74753;SDS011;63271;53.340;-6.260;2023-08-17T06:13:15;6.63;;;1.90;;
74753;SDS011;63271;53.340;-6.260;2023-08-17T06:15:40;5.10;;;1.75;;
74753;SDS011;63271;53.340;-6.260;2023-08-17T06:18:08;7.82;;;2.03;;
74753;SDS011;63271;53.340;-6.260;2023-08-17T06:20:34;9.52;;;2.30;;
74753;SDS011;63271;53.340;-6.260;2023-08-17T06:22:59;11.20;;;2.50;;
74753;SDS011;63271;53.340;-6.260;2023-08-17T06:25:24;4.80;;;1.70;;
74753;SDS011;63271;53.340;-6.260;2023-08-17T06:27:51;6.15;;;1.80;;
74753;SDS011;63271;53.340;-6.260;2023-08-17T06:30:16;6.90;;;1.80;;
74753;SDS011;63271;53.340;-6.260;2023-08-17T06:32:44;4.90;;;2.10;;
74753;SDS011;63271;53.340;-6.260;2023-08-17T06:35:12;9.52;;;2.63;;
74753;SDS011;63271;53.340;-6.260;2023-08-17T06:37:40;12.20;;;2.75;;
74753;SDS011;63271;53.340;-6.260;2023-08-17T06:40:08;7.18;;;2.03;;
74753;SDS011;63271;53.340;-6.260;2023-08-17T06:42:36;5.93;;;1.67;;
74753;SDS011;63271;53.340;-6.260;2023-08-17T06:45:02;6.22;;;1.73;;
74753;SDS011;63271;53.340;-6.260;2023-08-17T06:47:29;6.63;;;1.80;;
74753;SDS011;63271;53.340;-6.260;2023-08-17T06:49:54;10.38;;;1.58;;
74753;SDS011;63271;53.340;-6.260;2023-08-17T06:52:20;5.55;;;1.60;;
74753;SDS011;63271;53.340;-6.260;2023-08-17T06:54:48;8.23;;;1.92;;
74753;SDS011;63271;53.340;-6.260;2023-08-17T06:57:13;6.35;;;1.60;;
74753;SDS011;63271;53.340;-6.260;2023-08-17T06:59:39;10.38;;;2.13;;
74753;SDS011;63271;53.340;-6.260;2023-08-17T07:02:04;12.63;;;1.98;;
74753;SDS011;63271;53.340;-6.260;2023-08-17T07:04:29;12.52;;;3.15;;
74753;SDS011;63271;53.340;-6.260;2023-08-17T07:06:55;6.97;;;1.48;;
74753;SDS011;63271;53.340;-6.260;2023-08-17T07:09:20;14.25;;;2.13;;
74753;SDS011;63271;53.340;-6.260;2023-08-17T07:11:46;8.95;;;2.00;;
74753;SDS011;63271;53.340;-6.260;2023-08-17T07:14:11;6.55;;;1.75;;
74753;SDS011;63271;53.340;-6.260;2023-08-17T07:16:41;8.13;;;2.00;;
74753;SDS011;63271;53.340;-6.260;2023-08-17T07:19:09;5.43;;;1.48;;
74753;SDS011;63271;53.340;-6.260;2023-08-17T07:21:35;9.10;;;1.70;;
74753;SDS011;63271;53.340;-6.260;2023-08-17T07:24:10;6.88;;;1.65;;
74753;SDS011;63271;53.340;-6.260;2023-08-17T07:26:43;10.38;;;2.67;;
74753;SDS011;63271;53.340;-6.260;2023-08-17T07:29:08;14.57;;;2.40;;
74753;SDS011;63271;53.340;-6.260;2023-08-17T07:31:34;5.90;;;1.35;;
74753;SDS011;63271;53.340;-6.260;2023-08-17T07:34:07;9.60;;;2.08;;
74753;SDS011;63271;53.340;-6.260;2023-08-17T07:36:33;11.02;;;2.17;;
74753;SDS011;63271;53.340;-6.260;2023-08-17T07:39:01;8.32;;;1.73;;
74753;SDS011;63271;53.340;-6.260;2023-08-17T07:41:31;7.35;;;1.50;;
74753;SDS011;63271;53.340;-6.260;2023-08-17T07:43:57;10.05;;;2.40;;
74753;SDS011;63271;53.340;-6.260;2023-08-17T07:46:23;12.40;;;1.90;;
74753;SDS011;63271;53.340;-6.260;2023-08-17T07:48:51;7.70;;;1.80;;
74753;SDS011;63271;53.340;-6.260;2023-08-17T07:51:18;10.80;;;2.00;;
74753;SDS011;63271;53.340;-6.260;2023-08-17T07:53:44;10.35;;;1.85;;
74753;SDS011;63271;53.340;-6.260;2023-08-17T07:56:09;7.43;;;1.33;;
74753;SDS011;63271;53.340;-6.260;2023-08-17T07:58:35;14.77;;;2.75;;
74753;SDS011;63271;53.340;-6.260;2023-08-17T08:01:00;5.25;;;1.58;;
74753;SDS011;63271;53.340;-6.260;2023-08-17T08:03:28;23.98;;;2.38;;
74753;SDS011;63271;53.340;-6.260;2023-08-17T08:05:54;12.13;;;1.65;;
74753;SDS011;63271;53.340;-6.260;2023-08-17T08:08:19;8.55;;;1.63;;
74753;SDS011;63271;53.340;-6.260;2023-08-17T08:10:45;8.18;;;2.03;;
74753;SDS011;63271;53.340;-6.260;2023-08-17T08:13:15;6.43;;;1.80;;
74753;SDS011;63271;53.340;-6.260;2023-08-17T08:15:40;16.88;;;3.67;;
74753;SDS011;63271;53.340;-6.260;2023-08-17T08:18:08;10.93;;;2.08;;
74753;SDS011;63271;53.340;-6.260;2023-08-17T08:20:33;8.23;;;1.42;;
74753;SDS011;63271;53.340;-6.260;2023-08-17T08:22:59;19.27;;;1.90;;
74753;SDS011;63271;53.340;-6.260;2023-08-17T08:25:24;8.68;;;1.50;;
74753;SDS011;63271;53.340;-6.260;2023-08-17T08:27:49;9.55;;;1.60;;
74753;SDS011;63271;53.340;-6.260;2023-08-17T08:30:15;7.60;;;1.45;;
74753;SDS011;63271;53.340;-6.260;2023-08-17T08:32:42;8.20;;;2.45;;
74753;SDS011;63271;53.340;-6.260;2023-08-17T08:35:07;29.02;;;9.75;;
74753;SDS011;63271;53.340;-6.260;2023-08-17T08:37:35;7.10;;;1.52;;
74753;SDS011;63271;53.340;-6.260;2023-08-17T08:40:00;13.65;;;1.90;;
74753;SDS011;63271;53.340;-6.260;2023-08-17T08:42:26;5.57;;;2.17;;
74753;SDS011;63271;53.340;-6.260;2023-08-17T08:44:52;11.50;;;2.72;;
74753;SDS011;63271;53.340;-6.260;2023-08-17T08:47:17;6.32;;;1.88;;
74753;SDS011;63271;53.340;-6.260;2023-08-17T08:49:50;8.98;;;2.22;;
74753;SDS011;63271;53.340;-6.260;2023-08-17T08:53:13;18.77;;;2.72;;
74753;SDS011;63271;53.340;-6.260;2023-08-17T08:55:26;10.52;;;2.60;;
74753;SDS011;63271;53.340;-6.260;2023-08-17T08:57:53;4.10;;;1.40;;
74753;SDS011;63271;53.340;-6.260;2023-08-17T09:00:22;9.07;;;2.05;;
74753;SDS011;63271;53.340;-6.260;2023-08-17T09:02:48;11.38;;;2.80;;
74753;SDS011;63271;53.340;-6.260;2023-08-17T09:05:18;17.65;;;3.00;;
74753;SDS011;63271;53.340;-6.260;2023-08-17T09:07:44;9.90;;;2.00;;
74753;SDS011;63271;53.340;-6.260;2023-08-17T09:10:15;8.05;;;1.70;;
74753;SDS011;63271;53.340;-6.260;2023-08-17T09:12:42;12.40;;;1.70;;
74753;SDS011;63271;53.340;-6.260;2023-08-17T09:15:10;4.32;;;1.33;;
74753;SDS011;63271;53.340;-6.260;2023-08-17T09:17:36;10.05;;;1.85;;
74753;SDS011;63271;53.340;-6.260;2023-08-17T09:20:01;4.75;;;1.58;;
74753;SDS011;63271;53.340;-6.260;2023-08-17T09:22:42;9.82;;;1.80;;
74753;SDS011;63271;53.340;-6.260;2023-08-17T09:25:10;6.60;;;1.95;;
74753;SDS011;63271;53.340;-6.260;2023-08-17T09:27:36;6.97;;;2.30;;
74753;SDS011;63271;53.340;-6.260;2023-08-17T09:30:03;8.63;;;1.65;;
74753;SDS011;63271;53.340;-6.260;2023-08-17T09:32:33;7.05;;;1.85;;
74753;SDS011;63271;53.340;-6.260;2023-08-17T09:35:05;9.75;;;2.33;;
74753;SDS011;63271;53.340;-6.260;2023-08-17T09:37:31;9.23;;;1.83;;
74753;SDS011;63271;53.340;-6.260;2023-08-17T09:40:02;6.47;;;1.60;;
74753;SDS011;63271;53.340;-6.260;2023-08-17T09:42:28;13.57;;;1.80;;
74753;SDS011;63271;53.340;-6.260;2023-08-17T09:44:53;5.13;;;1.38;;
74753;SDS011;63271;53.340;-6.260;2023-08-17T09:47:22;8.13;;;2.80;;
74753;SDS011;63271;53.340;-6.260;2023-08-17T09:49:49;6.13;;;1.50;;
74753;SDS011;63271;53.340;-6.260;2023-08-17T09:52:22;10.73;;;1.95;;
74753;SDS011;63271;53.340;-6.260;2023-08-17T09:54:50;7.22;;;1.70;;
74753;SDS011;63271;53.340;-6.260;2023-08-17T09:57:17;10.20;;;2.03;;
74753;SDS011;63271;53.340;-6.260;2023-08-17T09:59:42;10.48;;;2.03;;
74753;SDS011;63271;53.340;-6.260;2023-08-17T10:02:18;8.25;;;2.15;;
74753;SDS011;63271;53.340;-6.260;2023-08-17T10:04:51;7.28;;;2.10;;
74753;SDS011;63271;53.340;-6.260;2023-08-17T10:07:21;5.85;;;2.20;;
74753;SDS011;63271;53.340;-6.260;2023-08-17T10:09:53;12.07;;;2.70;;
74753;SDS011;63271;53.340;-6.260;2023-08-17T10:12:27;12.95;;;2.42;;
74753;SDS011;63271;53.340;-6.260;2023-08-17T10:14:57;4.95;;;1.80;;
74753;SDS011;63271;53.340;-6.260;2023-08-17T10:17:27;5.80;;;1.80;;
74753;SDS011;63271;53.340;-6.260;2023-08-17T10:19:59;6.32;;;2.20;;
74753;SDS011;63271;53.340;-6.260;2023-08-17T10:24:57;7.32;;;2.15;;
74753;SDS011;63271;53.340;-6.260;2023-08-17T10:27:26;8.77;;;1.90;;
74753;SDS011;63271;53.340;-6.260;2023-08-17T10:29:55;8.98;;;2.25;;
74753;SDS011;63271;53.340;-6.260;2023-08-17T10:32:21;18.65;;;2.30;;
74753;SDS011;63271;53.340;-6.260;2023-08-17T10:34:50;6.38;;;1.90;;
74753;SDS011;63271;53.340;-6.260;2023-08-17T10:37:17;10.05;;;3.38;;
74753;SDS011;63271;53.340;-6.260;2023-08-17T10:39:49;13.40;;;2.83;;
74753;SDS011;63271;53.340;-6.260;2023-08-17T10:47:47;7.47;;;2.17;;
74753;SDS011;63271;53.340;-6.260;2023-08-17T10:50:21;8.15;;;2.70;;
74753;SDS011;63271;53.340;-6.260;2023-08-17T10:52:49;8.50;;;2.22;;
74753;SDS011;63271;53.340;-6.260;2023-08-17T10:55:15;10.40;;;2.20;;
74753;SDS011;63271;53.340;-6.260;2023-08-17T10:57:43;5.10;;;1.85;;
74753;SDS011;63271;53.340;-6.260;2023-08-17T11:00:21;9.95;;;2.10;;
74753;SDS011;63271;53.340;-6.260;2023-08-17T11:03:03;12.65;;;3.92;;
74753;SDS011;63271;53.340;-6.260;2023-08-17T11:13:40;11.30;;;2.58;;
74753;SDS011;63271;53.340;-6.260;2023-08-17T11:16:07;11.07;;;2.88;;
74753;SDS011;63271;53.340;-6.260;2023-08-17T11:18:35;8.63;;;2.13;;
74753;SDS011;63271;53.340;-6.260;2023-08-17T11:21:02;11.23;;;2.53;;
74753;SDS011;63271;53.340;-6.260;2023-08-17T11:23:29;11.02;;;2.97;;
74753;SDS011;63271;53.340;-6.260;2023-08-17T11:25:55;7.38;;;2.40;;
74753;SDS011;63271;53.340;-6.260;2023-08-17T11:28:21;9.57;;;2.72;;
74753;SDS011;63271;53.340;-6.260;2023-08-17T11:30:55;11.70;;;2.75;;
74753;SDS011;63271;53.340;-6.260;2023-08-17T11:33:29;7.13;;;2.33;;
74753;SDS011;63271;53.340;-6.260;2023-08-17T11:35:58;8.98;;;2.33;;
74753;SDS011;63271;53.340;-6.260;2023-08-17T11:38:24;9.30;;;2.92;;
74753;SDS011;63271;53.340;-6.260;2023-08-17T11:40:50;9.10;;;2.67;;
74753;SDS011;63271;53.340;-6.260;2023-08-17T11:43:21;11.13;;;2.88;;
74753;SDS011;63271;53.340;-6.260;2023-08-17T11:45:49;9.32;;;2.60;;
74753;SDS011;63271;53.340;-6.260;2023-08-17T11:48:14;9.40;;;2.72;;
74753;SDS011;63271;53.340;-6.260;2023-08-17T11:50:42;14.95;;;3.33;;
74753;SDS011;63271;53.340;-6.260;2023-08-17T11:53:08;19.25;;;3.00;;
74753;SDS011;63271;53.340;-6.260;2023-08-17T11:55:33;8.90;;;3.03;;
74753;SDS011;63271;53.340;-6.260;2023-08-17T11:57:58;13.07;;;3.13;;
74753;SDS011;63271;53.340;-6.260;2023-08-17T12:00:24;9.70;;;2.95;;
74753;SDS011;63271;53.340;-6.260;2023-08-17T12:02:52;14.10;;;7.55;;
74753;SDS011;63271;53.340;-6.260;2023-08-17T12:05:25;9.95;;;3.05;;
74753;SDS011;63271;53.340;-6.260;2023-08-17T12:07:54;7.60;;;2.83;;
74753;SDS011;63271;53.340;-6.260;2023-08-17T12:10:22;10.10;;;3.55;;
74753;SDS011;63271;53.340;-6.260;2023-08-17T12:12:47;9.75;;;3.90;;
74753;SDS011;63271;53.340;-6.260;2023-08-17T12:15:13;10.73;;;2.78;;
74753;SDS011;63271;53.340;-6.260;2023-08-17T12:17:45;10.93;;;4.85;;
74753;SDS011;63271;53.340;-6.260;2023-08-17T12:20:20;7.25;;;3.05;;
74753;SDS011;63271;53.340;-6.260;2023-08-17T12:22:46;10.20;;;3.20;;
74753;SDS011;63271;53.340;-6.260;2023-08-17T12:25:12;10.50;;;3.80;;
74753;SDS011;63271;53.340;-6.260;2023-08-17T12:27:37;11.63;;;3.50;;
74753;SDS011;63271;53.340;-6.260;2023-08-17T12:30:03;13.32;;;4.32;;
74753;SDS011;63271;53.340;-6.260;2023-08-17T12:32:29;6.38;;;3.35;;
74753;SDS011;63271;53.340;-6.260;2023-08-17T12:34:54;7.15;;;3.30;;
74753;SDS011;63271;53.340;-6.260;2023-08-17T12:37:20;10.30;;;3.90;;
74753;SDS011;63271;53.340;-6.260;2023-08-17T12:39:48;8.27;;;3.08;;
74753;SDS011;63271;53.340;-6.260;2023-08-17T12:42:17;11.52;;;4.38;;
74753;SDS011;63271;53.340;-6.260;2023-08-17T12:44:43;11.13;;;4.25;;
74753;SDS011;63271;53.340;-6.260;2023-08-17T12:47:13;12.30;;;4.38;;
74753;SDS011;63271;53.340;-6.260;2023-08-17T12:49:38;15.90;;;4.97;;
74753;SDS011;63271;53.340;-6.260;2023-08-17T12:52:04;11.57;;;4.15;;
74753;SDS011;63271;53.340;-6.260;2023-08-17T12:54:29;15.05;;;4.15;;
74753;SDS011;63271;53.340;-6.260;2023-08-17T12:56:57;12.65;;;3.88;;
74753;SDS011;63271;53.340;-6.260;2023-08-17T12:59:22;16.75;;;3.72;;
74753;SDS011;63271;53.340;-6.260;2023-08-17T13:01:50;15.10;;;4.65;;
74753;SDS011;63271;53.340;-6.260;2023-08-17T13:04:16;26.55;;;5.15;;
74753;SDS011;63271;53.340;-6.260;2023-08-17T13:06:44;11.02;;;3.17;;
74753;SDS011;63271;53.340;-6.260;2023-08-17T13:09:09;14.63;;;3.70;;
74753;SDS011;63271;53.340;-6.260;2023-08-17T13:11:37;10.15;;;3.28;;
74753;SDS011;63271;53.340;-6.260;2023-08-17T13:14:02;14.88;;;3.92;;
74753;SDS011;63271;53.340;-6.260;2023-08-17T13:16:30;14.85;;;4.15;;
74753;SDS011;63271;53.340;-6.260;2023-08-17T13:18:55;11.00;;;3.28;;
74753;SDS011;63271;53.340;-6.260;2023-08-17T13:21:23;8.93;;;3.30;;
74753;SDS011;63271;53.340;-6.260;2023-08-17T13:23:51;10.25;;;3.50;;
74753;SDS011;63271;53.340;-6.260;2023-08-17T13:26:19;10.10;;;3.35;;
74753;SDS011;63271;53.340;-6.260;2023-08-17T13:28:46;8.90;;;3.47;;
74753;SDS011;63271;53.340;-6.260;2023-08-17T13:31:13;12.98;;;3.50;;
74753;SDS011;63271;53.340;-6.260;2023-08-17T13:33:39;13.80;;;4.28;;
74753;SDS011;63271;53.340;-6.260;2023-08-17T13:36:04;13.05;;;4.22;;
74753;SDS011;63271;53.340;-6.260;2023-08-17T13:38:30;12.13;;;3.60;;
74753;SDS011;63271;53.340;-6.260;2023-08-17T13:40:56;11.13;;;3.78;;
74753;SDS011;63271;53.340;-6.260;2023-08-17T13:43:22;19.00;;;3.85;;
74753;SDS011;63271;53.340;-6.260;2023-08-17T13:45:47;15.90;;;3.53;;
74753;SDS011;63271;53.340;-6.260;2023-08-17T13:48:15;13.77;;;3.60;;
74753;SDS011;63271;53.340;-6.260;2023-08-17T13:50:40;11.10;;;3.35;;
74753;SDS011;63271;53.340;-6.260;2023-08-17T13:53:08;13.27;;;3.45;;
74753;SDS011;63271;53.340;-6.260;2023-08-17T13:55:34;15.30;;;3.50;;
74753;SDS011;63271;53.340;-6.260;2023-08-17T13:57:59;13.65;;;4.13;;
74753;SDS011;63271;53.340;-6.260;2023-08-17T14:00:25;15.80;;;3.38;;
74753;SDS011;63271;53.340;-6.260;2023-08-17T14:02:51;12.07;;;4.30;;
74753;SDS011;63271;53.340;-6.260;2023-08-17T14:05:17;11.90;;;3.22;;
74753;SDS011;63271;53.340;-6.260;2023-08-17T14:07:45;17.50;;;4.15;;
74753;SDS011;63271;53.340;-6.260;2023-08-17T14:10:10;16.38;;;4.60;;
74753;SDS011;63271;53.340;-6.260;2023-08-17T14:12:35;15.77;;;4.90;;
74753;SDS011;63271;53.340;-6.260;2023-08-17T14:15:01;16.40;;;4.90;;
74753;SDS011;63271;53.340;-6.260;2023-08-17T14:17:26;12.82;;;3.30;;
74753;SDS011;63271;53.340;-6.260;2023-08-17T14:19:52;14.82;;;3.13;;
74753;SDS011;63271;53.340;-6.260;2023-08-17T14:22:20;11.25;;;3.65;;
74753;SDS011;63271;53.340;-6.260;2023-08-17T14:24:48;18.88;;;2.95;;
74753;SDS011;63271;53.340;-6.260;2023-08-17T14:27:13;11.80;;;3.60;;
74753;SDS011;63271;53.340;-6.260;2023-08-17T14:29:39;26.25;;;6.10;;
74753;SDS011;63271;53.340;-6.260;2023-08-17T14:32:04;13.38;;;3.75;;
74753;SDS011;63271;53.340;-6.260;2023-08-17T14:34:32;15.63;;;3.42;;
74753;SDS011;63271;53.340;-6.260;2023-08-17T14:36:57;12.60;;;4.03;;
74753;SDS011;63271;53.340;-6.260;2023-08-17T14:39:23;13.05;;;4.28;;
74753;SDS011;63271;53.340;-6.260;2023-08-17T14:41:50;13.00;;;3.83;;
74753;SDS011;63271;53.340;-6.260;2023-08-17T14:44:20;11.73;;;4.07;;
74753;SDS011;63271;53.340;-6.260;2023-08-17T14:46:46;14.25;;;4.13;;
74753;SDS011;63271;53.340;-6.260;2023-08-17T14:49:11;14.50;;;3.88;;
74753;SDS011;63271;53.340;-6.260;2023-08-17T14:51:38;18.10;;;5.10;;
74753;SDS011;63271;53.340;-6.260;2023-08-17T14:54:04;12.13;;;3.65;;
74753;SDS011;63271;53.340;-6.260;2023-08-17T14:56:31;13.50;;;4.25;;
74753;SDS011;63271;53.340;-6.260;2023-08-17T14:58:56;14.35;;;4.30;;
74753;SDS011;63271;53.340;-6.260;2023-08-17T15:01:22;10.65;;;3.78;;
74753;SDS011;63271;53.340;-6.260;2023-08-17T15:03:47;12.85;;;3.55;;
74753;SDS011;63271;53.340;-6.260;2023-08-17T15:06:15;15.23;;;3.80;;
74753;SDS011;63271;53.340;-6.260;2023-08-17T15:08:43;10.68;;;3.90;;
74753;SDS011;63271;53.340;-6.260;2023-08-17T15:11:09;12.60;;;3.25;;
74753;SDS011;63271;53.340;-6.260;2023-08-17T15:13:34;9.95;;;3.60;;
74753;SDS011;63271;53.340;-6.260;2023-08-17T15:16:00;11.95;;;4.95;;
74753;SDS011;63271;53.340;-6.260;2023-08-17T15:18:25;9.40;;;3.83;;
74753;SDS011;63271;53.340;-6.260;2023-08-17T15:20:51;7.82;;;3.47;;
74753;SDS011;63271;53.340;-6.260;2023-08-17T15:23:16;13.57;;;4.00;;
74753;SDS011;63271;53.340;-6.260;2023-08-17T15:25:42;16.15;;;4.38;;
74753;SDS011;63271;53.340;-6.260;2023-08-17T15:28:10;12.80;;;3.65;;
74753;SDS011;63271;53.340;-6.260;2023-08-17T15:33:03;17.90;;;5.57;;
74753;SDS011;63271;53.340;-6.260;2023-08-17T15:35:31;13.15;;;3.63;;
74753;SDS011;63271;53.340;-6.260;2023-08-17T15:37:59;11.05;;;3.92;;
74753;SDS011;63271;53.340;-6.260;2023-08-17T15:40:24;15.65;;;5.68;;
74753;SDS011;63271;53.340;-6.260;2023-08-17T15:42:52;13.82;;;4.03;;
74753;SDS011;63271;53.340;-6.260;2023-08-17T15:45:17;17.52;;;4.25;;
74753;SDS011;63271;53.340;-6.260;2023-08-17T15:47:45;9.13;;;3.65;;
74753;SDS011;63271;53.340;-6.260;2023-08-17T15:50:11;12.82;;;4.28;;
74753;SDS011;63271;53.340;-6.260;2023-08-17T15:52:36;14.55;;;5.22;;
74753;SDS011;63271;53.340;-6.260;2023-08-17T15:55:04;12.38;;;5.13;;
74753;SDS011;63271;53.340;-6.260;2023-08-17T15:57:30;12.93;;;3.92;;
74753;SDS011;63271;53.340;-6.260;2023-08-17T15:59:55;20.50;;;4.25;;
74753;SDS011;63271;53.340;-6.260;2023-08-17T16:02:21;12.70;;;4.18;;
74753;SDS011;63271;53.340;-6.260;2023-08-17T16:04:48;17.63;;;3.80;;
74753;SDS011;63271;53.340;-6.260;2023-08-17T16:07:14;15.95;;;4.20;;
74753;SDS011;63271;53.340;-6.260;2023-08-17T16:09:40;14.90;;;3.97;;
74753;SDS011;63271;53.340;-6.260;2023-08-17T16:12:05;10.75;;;3.75;;
74753;SDS011;63271;53.340;-6.260;2023-08-17T16:14:31;20.92;;;4.45;;
74753;SDS011;63271;53.340;-6.260;2023-08-17T16:16:58;18.05;;;6.32;;
74753;SDS011;63271;53.340;-6.260;2023-08-17T16:19:24;12.95;;;3.95;;
74753;SDS011;63271;53.340;-6.260;2023-08-17T16:21:49;14.10;;;4.10;;
74753;SDS011;63271;53.340;-6.260;2023-08-17T16:24:17;14.85;;;4.30;;
74753;SDS011;63271;53.340;-6.260;2023-08-17T16:26:43;16.08;;;4.93;;
74753;SDS011;63271;53.340;-6.260;2023-08-17T16:29:08;11.90;;;4.82;;
74753;SDS011;63271;53.340;-6.260;2023-08-17T16:31:35;12.77;;;4.85;;
74753;SDS011;63271;53.340;-6.260;2023-08-17T16:34:01;14.73;;;5.10;;
74753;SDS011;63271;53.340;-6.260;2023-08-17T16:36:26;20.55;;;5.18;;
74753;SDS011;63271;53.340;-6.260;2023-08-17T16:38:52;19.15;;;5.68;;
74753;SDS011;63271;53.340;-6.260;2023-08-17T16:41:19;12.07;;;5.05;;
74753;SDS011;63271;53.340;-6.260;2023-08-17T16:43:45;18.67;;;5.35;;
74753;SDS011;63271;53.340;-6.260;2023-08-17T16:46:12;17.65;;;4.35;;
74753;SDS011;63271;53.340;-6.260;2023-08-17T16:48:38;19.00;;;5.57;;
74753;SDS011;63271;53.340;-6.260;2023-08-17T16:51:03;18.30;;;5.32;;
74753;SDS011;63271;53.340;-6.260;2023-08-17T16:53:31;14.82;;;4.97;;
74753;SDS011;63271;53.340;-6.260;2023-08-17T16:55:57;14.00;;;4.90;;
74753;SDS011;63271;53.340;-6.260;2023-08-17T16:58:23;12.85;;;4.57;;
74753;SDS011;63271;53.340;-6.260;2023-08-17T17:00:48;11.80;;;4.78;;
74753;SDS011;63271;53.340;-6.260;2023-08-17T17:03:14;19.30;;;5.55;;
74753;SDS011;63271;53.340;-6.260;2023-08-17T17:05:39;24.38;;;5.57;;
74753;SDS011;63271;53.340;-6.260;2023-08-17T17:08:04;18.00;;;5.82;;
74753;SDS011;63271;53.340;-6.260;2023-08-17T17:10:32;15.85;;;5.07;;
74753;SDS011;63271;53.340;-6.260;2023-08-17T17:13:00;17.20;;;5.32;;
74753;SDS011;63271;53.340;-6.260;2023-08-17T17:15:25;15.23;;;6.43;;
74753;SDS011;63271;53.340;-6.260;2023-08-17T17:17:51;11.88;;;5.00;;
74753;SDS011;63271;53.340;-6.260;2023-08-17T17:20:16;17.75;;;5.53;;
74753;SDS011;63271;53.340;-6.260;2023-08-17T17:22:42;17.98;;;4.53;;
74753;SDS011;63271;53.340;-6.260;2023-08-17T17:25:07;15.07;;;4.90;;
74753;SDS011;63271;53.340;-6.260;2023-08-17T17:27:33;27.08;;;7.47;;
74753;SDS011;63271;53.340;-6.260;2023-08-17T17:29:59;16.85;;;5.70;;
74753;SDS011;63271;53.340;-6.260;2023-08-17T17:32:24;11.05;;;4.63;;
74753;SDS011;63271;53.340;-6.260;2023-08-17T17:34:50;30.20;;;5.10;;
74753;SDS011;63271;53.340;-6.260;2023-08-17T17:37:17;17.73;;;5.50;;
74753;SDS011;63271;53.340;-6.260;2023-08-17T17:39:45;16.15;;;4.80;;
74753;SDS011;63271;53.340;-6.260;2023-08-17T17:42:10;15.18;;;4.60;;
74753;SDS011;63271;53.340;-6.260;2023-08-17T17:44:35;16.80;;;4.70;;
74753;SDS011;63271;53.340;-6.260;2023-08-17T17:47:01;13.40;;;4.85;;
74753;SDS011;63271;53.340;-6.260;2023-08-17T17:49:29;18.05;;;5.20;;
74753;SDS011;63271;53.340;-6.260;2023-08-17T17:51:55;18.20;;;4.70;;
74753;SDS011;63271;53.340;-6.260;2023-08-17T17:54:26;17.50;;;4.53;;
74753;SDS011;63271;53.340;-6.260;2023-08-17T17:56:54;15.98;;;4.03;;
74753;SDS011;63271;53.340;-6.260;2023-08-17T17:59:19;11.45;;;4.53;;
74753;SDS011;63271;53.340;-6.260;2023-08-17T18:01:47;13.52;;;4.57;;
74753;SDS011;63271;53.340;-6.260;2023-08-17T18:04:13;15.98;;;4.57;;
74753;SDS011;63271;53.340;-6.260;2023-08-17T18:06:41;11.55;;;4.78;;
74753;SDS011;63271;53.340;-6.260;2023-08-17T18:09:06;16.15;;;4.25;;
74753;SDS011;63271;53.340;-6.260;2023-08-17T18:11:32;16.95;;;5.53;;
74753;SDS011;63271;53.340;-6.260;2023-08-17T18:14:00;19.17;;;4.78;;
74753;SDS011;63271;53.340;-6.260;2023-08-17T18:16:26;14.77;;;5.97;;
74753;SDS011;63271;53.340;-6.260;2023-08-17T18:18:54;20.75;;;5.90;;
74753;SDS011;63271;53.340;-6.260;2023-08-17T18:21:19;15.55;;;5.22;;
74753;SDS011;63271;53.340;-6.260;2023-08-17T18:23:48;13.65;;;4.90;;
74753;SDS011;63271;53.340;-6.260;2023-08-17T18:26:13;23.15;;;5.07;;
74753;SDS011;63271;53.340;-6.260;2023-08-17T18:28:39;15.02;;;4.68;;
74753;SDS011;63271;53.340;-6.260;2023-08-17T18:31:04;19.98;;;5.55;;
74753;SDS011;63271;53.340;-6.260;2023-08-17T18:33:30;14.93;;;4.95;;
74753;SDS011;63271;53.340;-6.260;2023-08-17T18:35:57;13.23;;;5.03;;
74753;SDS011;63271;53.340;-6.260;2023-08-17T18:38:26;20.45;;;5.10;;
74753;SDS011;63271;53.340;-6.260;2023-08-17T18:40:54;13.85;;;5.20;;
74753;SDS011;63271;53.340;-6.260;2023-08-17T18:43:31;18.60;;;4.65;;
74753;SDS011;63271;53.340;-6.260;2023-08-17T18:45:56;18.80;;;4.95;;
74753;SDS011;63271;53.340;-6.260;2023-08-17T18:48:24;14.63;;;4.65;;
74753;SDS011;63271;53.340;-6.260;2023-08-17T18:50:50;10.85;;;4.05;;
74753;SDS011;63271;53.340;-6.260;2023-08-17T18:53:19;14.30;;;4.53;;
74753;SDS011;63271;53.340;-6.260;2023-08-17T18:55:47;12.82;;;4.45;;
74753;SDS011;63271;53.340;-6.260;2023-08-17T18:58:15;20.55;;;4.28;;
74753;SDS011;63271;53.340;-6.260;2023-08-17T19:00:43;22.85;;;4.93;;
